createdAt,value
2023-06-12T00:00:26.490Z,13.73
2023-06-12T00:02:52.874Z,13.64
2023-06-12T00:05:19.219Z,13.59
2023-06-12T00:07:45.482Z,13.55
2023-06-12T00:10:11.933Z,13.64
2023-06-12T00:12:38.435Z,13.78
2023-06-12T00:15:04.937Z,13.74
2023-06-12T00:17:31.408Z,13.73
2023-06-12T00:19:57.683Z,13.70
2023-06-12T00:22:23.981Z,13.57
2023-06-12T00:24:50.243Z,13.48
2023-06-12T00:27:16.504Z,13.47
2023-06-12T00:29:42.764Z,13.43
2023-06-12T00:32:09.068Z,13.38
2023-06-12T00:34:35.435Z,13.22
2023-06-12T00:37:01.709Z,13.11
2023-06-12T00:39:27.986Z,13.05
2023-06-12T00:41:54.245Z,13.01
2023-06-12T00:44:20.518Z,13.02
2023-06-12T00:46:46.805Z,13.01
2023-06-12T00:49:13.055Z,13.06
2023-06-12T00:51:39.310Z,13.04
2023-06-12T00:54:05.819Z,13.07
2023-06-12T00:56:32.091Z,13.15
2023-06-12T00:58:58.338Z,13.20
2023-06-12T01:01:24.692Z,13.28
2023-06-12T01:03:51.014Z,13.25
2023-06-12T01:06:17.272Z,13.20
2023-06-12T01:09:22.207Z,13.26
2023-06-12T01:11:49.307Z,13.34
2023-06-12T01:14:16.535Z,13.61
2023-06-12T01:16:42.827Z,13.86
2023-06-12T01:19:09.096Z,13.86
2023-06-12T01:21:35.366Z,14.04
2023-06-12T01:24:05.884Z,14.07
2023-06-12T01:26:52.392Z,14.30
2023-06-12T01:29:29.037Z,14.33
2023-06-12T01:32:01.344Z,14.36
2023-06-12T01:34:37.680Z,14.28
2023-06-12T01:37:07.749Z,14.56
2023-06-12T01:39:35.861Z,14.75
2023-06-12T01:42:02.889Z,14.87
2023-06-12T01:44:29.165Z,14.71
2023-06-12T01:46:55.457Z,14.40
2023-06-12T01:49:21.768Z,14.27
2023-06-12T01:51:48.033Z,14.21
2023-06-12T01:54:14.288Z,14.25
2023-06-12T01:56:40.562Z,14.18
2023-06-12T01:59:06.839Z,13.76
2023-06-12T02:01:33.172Z,13.63
2023-06-12T02:03:59.532Z,13.54
2023-06-12T02:06:25.836Z,13.47
2023-06-12T02:08:52.146Z,13.31
2023-06-12T02:11:18.969Z,13.27
2023-06-12T02:13:45.224Z,13.25
2023-06-12T02:16:11.520Z,13.25
2023-06-12T02:18:37.822Z,13.34
2023-06-12T02:21:04.075Z,13.56
2023-06-12T02:23:30.341Z,13.94
2023-06-12T02:25:56.593Z,13.93
2023-06-12T02:28:22.868Z,13.69
2023-06-12T02:30:49.124Z,13.79
2023-06-12T02:33:15.425Z,13.71
2023-06-12T02:35:41.672Z,13.66
2023-06-12T02:38:07.931Z,13.47
2023-06-12T02:40:34.183Z,13.35
2023-06-12T02:43:00.477Z,13.21
2023-06-12T02:45:26.750Z,13.08
2023-06-12T02:47:53.047Z,13.06
2023-06-12T02:50:19.330Z,12.99
2023-06-12T02:52:45.587Z,12.93
2023-06-12T02:55:11.838Z,12.89
2023-06-12T02:57:38.129Z,12.88
2023-06-12T03:00:04.622Z,13.02
2023-06-12T03:02:30.965Z,13.27
2023-06-12T03:04:57.263Z,13.52
2023-06-12T03:07:23.522Z,13.79
2023-06-12T03:09:49.789Z,13.74
2023-06-12T03:12:16.057Z,13.94
2023-06-12T03:14:42.319Z,13.64
2023-06-12T03:17:08.585Z,13.32
2023-06-12T03:19:34.854Z,13.34
2023-06-12T03:22:01.125Z,13.30
2023-06-12T03:24:27.493Z,13.35
2023-06-12T03:26:54.140Z,13.58
2023-06-12T03:29:20.544Z,13.97
2023-06-12T03:31:46.901Z,14.18
2023-06-12T03:34:13.279Z,14.47
2023-06-12T03:36:39.711Z,14.60
2023-06-12T03:39:06.059Z,14.72
2023-06-12T03:41:32.583Z,14.82
2023-06-12T03:43:59.151Z,15.03
2023-06-12T03:46:25.437Z,14.97
2023-06-12T03:48:51.782Z,14.96
2023-06-12T03:51:18.034Z,15.00
2023-06-12T03:53:44.307Z,14.90
2023-06-12T03:56:10.565Z,14.75
2023-06-12T03:58:36.837Z,14.67
2023-06-12T04:01:03.082Z,14.58
2023-06-12T04:03:29.505Z,14.57
2023-06-12T04:05:55.973Z,14.46
2023-06-12T04:08:22.237Z,14.56
2023-06-12T04:10:48.503Z,14.67
2023-06-12T04:13:14.764Z,14.94
2023-06-12T04:15:41.035Z,15.15
2023-06-12T04:18:07.383Z,15.38
2023-06-12T04:20:33.744Z,15.42
2023-06-12T04:23:00.307Z,15.47
2023-06-12T04:25:26.574Z,15.41
2023-06-12T04:27:52.906Z,15.40
2023-06-12T04:30:19.273Z,15.44
2023-06-12T04:32:45.662Z,15.56
2023-06-12T04:35:11.941Z,15.52
2023-06-12T04:37:38.332Z,15.54
2023-06-12T04:40:04.780Z,15.68
2023-06-12T04:42:31.082Z,15.83
2023-06-12T04:44:57.336Z,15.88
2023-06-12T04:47:23.635Z,15.97
2023-06-12T04:49:49.917Z,15.99
2023-06-12T04:52:16.180Z,16.03
2023-06-12T04:54:42.525Z,16.04
2023-06-12T04:57:09.253Z,16.11
2023-06-12T04:59:35.535Z,16.09
2023-06-12T05:02:01.832Z,16.13
2023-06-12T05:04:28.205Z,16.22
2023-06-12T05:06:54.615Z,16.19
2023-06-12T05:09:20.882Z,16.21
2023-06-12T05:11:47.144Z,16.21
2023-06-12T05:14:13.410Z,16.29
2023-06-12T05:16:39.770Z,16.36
2023-06-12T05:19:06.084Z,16.35
2023-06-12T05:21:32.333Z,16.31
2023-06-12T05:23:58.644Z,16.40
2023-06-12T05:26:24.969Z,16.41
2023-06-12T05:28:51.241Z,16.46
2023-06-12T05:31:17.893Z,16.59
2023-06-12T05:33:44.278Z,16.62
2023-06-12T05:36:10.582Z,16.68
2023-06-12T05:38:36.853Z,16.78
2023-06-12T05:41:03.103Z,16.94
2023-06-12T05:43:29.380Z,17.11
2023-06-12T05:45:58.580Z,17.49
2023-06-12T05:48:24.875Z,18.14
2023-06-12T05:50:51.172Z,18.98
2023-06-12T05:53:17.505Z,20.10
2023-06-12T05:55:43.754Z,21.06
2023-06-12T05:58:10.070Z,21.90
2023-06-12T06:00:36.322Z,22.34
2023-06-12T06:03:02.672Z,22.34
2023-06-12T06:05:28.963Z,22.51
2023-06-12T06:07:55.216Z,22.88
2023-06-12T06:10:21.474Z,22.95
2023-06-12T06:12:47.743Z,23.55
2023-06-12T06:15:14.221Z,23.34
2023-06-12T06:17:40.749Z,23.89
2023-06-12T06:20:07.272Z,24.10
2023-06-12T06:22:33.547Z,24.41
2023-06-12T06:24:59.832Z,24.97
2023-06-12T06:27:26.098Z,24.90
2023-06-12T06:29:52.350Z,24.57
2023-06-12T06:32:18.771Z,24.80
2023-06-12T06:34:45.081Z,24.95
2023-06-12T06:37:11.365Z,25.40
2023-06-12T06:39:37.627Z,25.50
2023-06-12T06:42:04.042Z,24.94
2023-06-12T06:44:30.293Z,25.13
2023-06-12T06:46:56.585Z,25.30
2023-06-12T06:49:22.831Z,24.77
2023-06-12T06:51:49.210Z,25.16
2023-06-12T06:54:15.458Z,25.29
2023-06-12T06:56:41.711Z,25.42
2023-06-12T06:59:07.979Z,25.12
2023-06-12T07:01:34.475Z,25.28
2023-06-12T07:04:01.046Z,25.50
2023-06-12T07:06:27.346Z,24.94
2023-06-12T07:08:54.655Z,24.88
2023-06-12T07:11:21.108Z,25.34
2023-06-12T07:13:47.373Z,24.98
2023-06-12T07:16:13.825Z,25.30
2023-06-12T07:18:40.158Z,24.82
2023-06-12T07:21:06.604Z,24.66
2023-06-12T07:23:32.860Z,25.26
2023-06-12T07:26:05.838Z,25.63
2023-06-12T07:28:37.749Z,25.08
2023-06-12T07:31:04.076Z,25.03
2023-06-12T07:33:30.362Z,25.02
2023-06-12T07:35:56.626Z,25.41
2023-06-12T07:38:22.901Z,25.31
2023-06-12T07:40:49.180Z,25.37
2023-06-12T07:43:15.436Z,25.35
2023-06-12T07:45:41.696Z,25.14
2023-06-12T07:48:07.991Z,25.12
2023-06-12T07:50:34.259Z,25.31
2023-06-12T07:53:00.669Z,25.68
2023-06-12T07:55:26.988Z,26.07
2023-06-12T07:57:53.309Z,25.84
2023-06-12T08:00:19.614Z,25.50
2023-06-12T08:02:45.969Z,25.70
2023-06-12T08:05:12.524Z,25.69
2023-06-12T08:07:38.930Z,25.77
2023-06-12T08:10:05.478Z,26.08
2023-06-12T08:12:31.772Z,26.32
2023-06-12T08:14:58.028Z,26.33
2023-06-12T08:17:24.304Z,26.75
2023-06-12T08:19:50.574Z,26.61
2023-06-12T08:22:16.844Z,26.97
2023-06-12T08:24:43.148Z,27.00
2023-06-12T08:27:09.442Z,26.98
2023-06-12T08:29:35.691Z,26.07
2023-06-12T08:32:01.944Z,26.26
2023-06-12T08:34:28.192Z,26.48
2023-06-12T08:36:54.520Z,26.59
2023-06-12T08:39:20.800Z,26.92
2023-06-12T08:42:05.847Z,27.15
2023-06-12T08:44:32.134Z,27.62
2023-06-12T08:46:59.454Z,28.03
2023-06-12T08:49:25.744Z,27.46
2023-06-12T08:51:52.041Z,27.62
2023-06-12T08:54:18.322Z,27.28
2023-06-12T08:56:44.564Z,27.19
2023-06-12T08:59:13.188Z,26.38
2023-06-12T09:01:40.900Z,26.86
2023-06-12T09:04:08.429Z,27.09
2023-06-12T09:06:34.717Z,27.40
2023-06-12T09:09:01.011Z,27.54
2023-06-12T09:11:27.314Z,27.55
2023-06-12T09:13:53.615Z,27.63
2023-06-12T09:16:22.772Z,27.64
2023-06-12T09:18:50.253Z,27.44
2023-06-12T09:21:21.421Z,27.44
2023-06-12T09:26:58.354Z,28.59
2023-06-12T09:29:32.805Z,28.29
2023-06-12T09:31:59.775Z,28.63
2023-06-12T09:37:07.580Z,27.67
2023-06-12T09:39:34.939Z,27.42
2023-06-12T09:42:02.871Z,27.73
2023-06-12T09:44:30.073Z,27.73
2023-06-12T09:46:59.719Z,27.69
2023-06-12T09:49:26.072Z,27.88
2023-06-12T09:51:52.368Z,27.94
2023-06-12T09:54:21.384Z,27.60
2023-06-12T09:56:47.908Z,28.09
2023-06-12T09:59:17.313Z,27.94
2023-06-12T10:01:47.296Z,27.82
2023-06-12T10:04:14.013Z,28.12
2023-06-12T10:06:44.165Z,28.06
2023-06-12T10:09:10.456Z,27.97
2023-06-12T10:11:36.737Z,28.35
2023-06-12T10:14:02.991Z,28.35
2023-06-12T10:16:29.285Z,28.32
2023-06-12T10:18:55.915Z,27.91
2023-06-12T10:21:22.176Z,28.14
2023-06-12T10:23:48.610Z,28.54
2023-06-12T10:26:14.886Z,28.01
2023-06-12T10:28:41.143Z,27.81
2023-06-12T10:31:20.258Z,28.01
2023-06-12T10:33:59.313Z,28.13
2023-06-12T10:36:28.202Z,27.92
2023-06-12T10:39:01.761Z,27.58
2023-06-12T10:41:34.138Z,27.98
2023-06-12T10:44:01.081Z,28.21
2023-06-12T10:46:43.223Z,28.12
2023-06-12T10:49:09.475Z,27.88
2023-06-12T10:51:35.744Z,28.20
2023-06-12T10:54:02.018Z,28.39
2023-06-12T10:56:28.415Z,28.30
2023-06-12T10:58:54.730Z,28.14
2023-06-12T11:01:21.077Z,28.24
2023-06-12T11:03:47.465Z,28.28
2023-06-12T11:06:13.945Z,28.25
2023-06-12T11:08:40.524Z,28.15
2023-06-12T11:11:07.299Z,27.84
2023-06-12T11:13:33.626Z,27.86
2023-06-12T11:15:59.877Z,28.05
2023-06-12T11:18:26.432Z,27.84
2023-06-12T11:20:56.375Z,27.94
2023-06-12T11:23:23.390Z,28.24
2023-06-12T11:25:49.657Z,28.03
2023-06-12T11:28:15.923Z,28.06
2023-06-12T11:30:58.049Z,27.87
2023-06-12T11:33:34.682Z,28.22
2023-06-12T11:36:01.008Z,27.96
2023-06-12T11:40:56.591Z,27.75
2023-06-12T11:43:23.326Z,27.83
2023-06-12T11:45:49.632Z,27.99
2023-06-12T11:50:49.888Z,28.07
2023-06-12T11:53:16.408Z,27.98
2023-06-12T11:58:21.802Z,27.74
2023-06-12T12:00:48.771Z,27.94
2023-06-12T12:03:17.016Z,27.68
2023-06-12T12:05:43.323Z,27.74
2023-06-12T12:08:09.590Z,27.73
2023-06-12T12:10:39.302Z,27.41
2023-06-12T12:13:05.565Z,27.39
2023-06-12T12:15:33.852Z,27.72
2023-06-12T12:18:00.146Z,27.72
2023-06-12T12:20:27.123Z,27.76
2023-06-12T12:22:54.086Z,27.82
2023-06-12T12:25:21.065Z,27.43
2023-06-12T12:27:47.347Z,27.34
2023-06-12T12:30:14.346Z,27.16
2023-06-12T12:32:41.083Z,27.41
2023-06-12T12:35:07.700Z,27.20
2023-06-12T12:37:34.079Z,27.47
2023-06-12T12:40:00.336Z,27.58
2023-06-12T12:42:26.588Z,27.82
2023-06-12T12:44:52.843Z,27.65
2023-06-12T12:47:19.233Z,27.71
2023-06-12T12:49:48.999Z,27.71
2023-06-12T12:52:29.082Z,27.80
2023-06-12T12:54:59.338Z,27.61
2023-06-12T12:57:27.423Z,27.63
2023-06-12T12:59:53.692Z,27.50
2023-06-12T13:02:20.036Z,27.37
2023-06-12T13:04:46.326Z,27.54
2023-06-12T13:07:12.588Z,27.17
2023-06-12T13:09:38.871Z,27.43
2023-06-12T13:12:05.363Z,27.24
2023-06-12T13:14:31.636Z,27.28
2023-06-12T13:16:57.945Z,27.06
2023-06-12T13:19:24.274Z,27.38
2023-06-12T13:21:50.550Z,27.44
2023-06-12T13:24:16.839Z,27.32
2023-06-12T13:26:43.171Z,27.19
2023-06-12T13:29:09.431Z,27.27
2023-06-12T13:31:42.874Z,27.10
2023-06-12T13:34:09.163Z,27.05
2023-06-12T13:36:35.445Z,27.01
2023-06-12T13:39:01.738Z,26.97
2023-06-12T13:41:29.106Z,26.94
2023-06-12T13:43:55.387Z,27.04
2023-06-12T13:46:21.701Z,27.10
2023-06-12T13:48:47.983Z,27.10
2023-06-12T13:51:14.239Z,27.22
2023-06-12T13:53:40.504Z,27.05
2023-06-12T13:56:06.768Z,27.14
2023-06-12T13:58:33.015Z,27.13
2023-06-12T14:00:59.287Z,27.08
2023-06-12T14:03:25.579Z,26.80
2023-06-12T14:05:51.875Z,26.66
2023-06-12T14:08:18.149Z,26.35
2023-06-12T14:10:44.410Z,26.43
2023-06-12T14:13:11.002Z,26.50
2023-06-12T14:15:37.276Z,26.43
2023-06-12T14:18:03.605Z,26.66
2023-06-12T14:20:30.539Z,26.56
2023-06-12T14:22:56.801Z,26.81
2023-06-12T14:25:23.097Z,26.69
2023-06-12T14:27:49.398Z,26.38
2023-06-12T14:30:16.044Z,26.25
2023-06-12T14:32:42.327Z,26.20
2023-06-12T14:35:08.695Z,26.28
2023-06-12T14:37:36.402Z,26.30
2023-06-12T14:40:02.664Z,26.13
2023-06-12T14:42:34.217Z,25.97
2023-06-12T14:45:00.596Z,25.91
2023-06-12T14:47:26.973Z,25.99
2023-06-12T14:49:53.315Z,25.91
2023-06-12T14:52:32.687Z,25.76
2023-06-12T14:55:00.399Z,25.76
2023-06-12T14:57:26.770Z,25.79
2023-06-12T14:59:53.138Z,25.81
2023-06-12T15:02:19.479Z,25.83
2023-06-12T15:04:45.784Z,25.73
2023-06-12T15:07:12.065Z,25.70
2023-06-12T15:09:38.338Z,25.53
2023-06-12T15:12:04.897Z,25.68
2023-06-12T15:14:31.416Z,25.67
2023-06-12T15:16:57.731Z,25.51
2023-06-12T15:19:24.800Z,25.49
2023-06-12T15:21:51.099Z,25.24
2023-06-12T15:24:17.412Z,25.38
2023-06-12T15:26:43.681Z,25.31
2023-06-12T15:29:10.341Z,25.12
2023-06-12T15:31:36.735Z,25.18
2023-06-12T15:34:03.130Z,25.33
2023-06-12T15:36:29.400Z,25.23
2023-06-12T15:38:55.710Z,25.17
2023-06-12T15:41:22.020Z,25.22
2023-06-12T15:43:48.363Z,25.32
2023-06-12T15:46:14.693Z,25.25
2023-06-12T15:48:40.956Z,25.32
2023-06-12T15:51:09.133Z,25.19
2023-06-12T15:53:35.424Z,25.08
2023-06-12T15:56:01.736Z,24.93
2023-06-12T15:58:27.996Z,24.86
2023-06-12T16:00:54.443Z,24.98
2023-06-12T16:03:20.850Z,24.92
2023-06-12T16:05:47.264Z,24.79
2023-06-12T16:08:13.514Z,24.61
2023-06-12T16:10:39.785Z,24.68
2023-06-12T16:13:06.038Z,24.45
2023-06-12T16:15:32.326Z,24.51
2023-06-12T16:17:59.017Z,24.66
2023-06-12T16:20:25.352Z,24.64
2023-06-12T16:22:51.619Z,24.61
2023-06-12T16:25:17.895Z,24.61
2023-06-12T16:27:44.155Z,24.52
2023-06-12T16:30:10.540Z,24.54
2023-06-12T16:32:36.826Z,24.45
2023-06-12T16:35:03.115Z,24.37
2023-06-12T16:37:29.373Z,24.23
2023-06-12T16:40:07.751Z,24.10
2023-06-12T16:42:35.417Z,24.11
2023-06-12T16:45:01.741Z,24.19
2023-06-12T16:47:28.181Z,24.04
2023-06-12T16:49:54.756Z,24.01
2023-06-12T16:52:21.010Z,24.05
2023-06-12T16:54:47.267Z,23.99
2023-06-12T16:57:13.599Z,23.80
2023-06-12T16:59:39.863Z,23.85
2023-06-12T17:02:06.804Z,23.71
2023-06-12T17:04:33.083Z,23.72
2023-06-12T17:06:59.373Z,23.70
2023-06-12T17:09:25.635Z,23.63
2023-06-12T17:11:51.900Z,23.56
2023-06-12T17:14:18.235Z,23.49
2023-06-12T17:16:44.603Z,23.26
2023-06-12T17:19:10.868Z,23.38
2023-06-12T17:21:37.153Z,23.11
2023-06-12T17:24:03.960Z,23.07
2023-06-12T17:26:30.271Z,23.08
2023-06-12T17:28:56.534Z,22.94
2023-06-12T17:31:22.817Z,23.01
2023-06-12T17:33:49.083Z,22.76
2023-06-12T17:36:15.345Z,22.72
2023-06-12T17:38:41.635Z,22.71
2023-06-12T17:41:07.905Z,22.69
2023-06-12T17:43:34.158Z,22.63
2023-06-12T17:46:00.506Z,22.61
2023-06-12T17:48:26.928Z,22.57
2023-06-12T17:50:53.246Z,22.45
2023-06-12T17:53:19.519Z,22.47
2023-06-12T17:55:45.806Z,22.49
2023-06-12T17:58:12.132Z,22.21
2023-06-12T18:00:38.410Z,21.90
2023-06-12T18:03:04.781Z,21.86
2023-06-12T18:05:31.147Z,21.78
2023-06-12T18:07:57.398Z,21.95
2023-06-12T18:10:23.733Z,21.84
2023-06-12T18:12:49.976Z,21.79
2023-06-12T18:15:16.458Z,21.73
2023-06-12T18:17:43.000Z,21.37
2023-06-12T18:20:09.488Z,21.46
2023-06-12T18:22:35.774Z,21.49
2023-06-12T18:25:02.039Z,21.10
2023-06-12T18:27:28.392Z,21.07
2023-06-12T18:29:54.665Z,20.98
2023-06-12T18:32:21.122Z,20.81
2023-06-12T18:34:47.379Z,20.86
2023-06-12T18:37:13.776Z,20.74
2023-06-12T18:39:40.660Z,20.48
2023-06-12T18:42:07.137Z,20.36
2023-06-12T18:44:33.403Z,20.19
2023-06-12T18:46:59.794Z,20.00
2023-06-12T18:49:26.096Z,19.84
2023-06-12T18:51:52.362Z,19.67
2023-06-12T18:54:18.719Z,19.81
2023-06-12T18:56:44.988Z,19.75
2023-06-12T18:59:11.260Z,19.53
2023-06-12T19:01:37.522Z,19.51
2023-06-12T19:04:03.932Z,19.18
2023-06-12T19:06:30.248Z,19.03
2023-06-12T19:08:56.591Z,18.90
2023-06-12T19:11:22.898Z,18.65
2023-06-12T19:13:49.170Z,18.61
2023-06-12T19:16:15.453Z,18.95
2023-06-12T19:18:41.722Z,19.06
2023-06-12T19:21:07.983Z,19.03
2023-06-12T19:23:34.239Z,19.08
2023-06-12T19:26:00.486Z,19.24
2023-06-12T19:28:26.773Z,19.10
2023-06-12T19:30:53.031Z,19.19
2023-06-12T19:33:19.393Z,19.01
2023-06-12T19:35:45.672Z,18.91
2023-06-12T19:38:11.964Z,18.69
2023-06-12T19:40:38.218Z,18.78
2023-06-12T19:43:04.858Z,18.54
2023-06-12T19:45:31.137Z,18.39
2023-06-12T19:47:57.475Z,18.08
2023-06-12T19:50:23.762Z,18.26
2023-06-12T19:52:50.325Z,17.72
2023-06-12T19:55:17.057Z,17.63
2023-06-12T19:57:43.863Z,17.86
2023-06-12T20:00:10.284Z,17.90
2023-06-12T20:02:36.611Z,17.30
2023-06-12T20:05:03.024Z,17.28
2023-06-12T20:07:29.296Z,16.96
2023-06-12T20:09:55.548Z,16.83
2023-06-12T20:12:21.830Z,16.29
2023-06-12T20:14:48.092Z,16.16
2023-06-12T20:17:14.349Z,16.48
2023-06-12T20:19:40.885Z,16.70
2023-06-12T20:22:07.189Z,16.69
2023-06-12T20:24:33.621Z,16.70
2023-06-12T20:27:00.034Z,16.87
2023-06-12T20:29:26.985Z,17.22
2023-06-12T20:31:53.361Z,17.38
2023-06-12T20:34:19.778Z,17.39
2023-06-12T20:36:46.168Z,17.28
2023-06-12T20:39:12.451Z,16.84
2023-06-12T20:41:38.730Z,17.01
2023-06-12T20:44:05.332Z,16.68
2023-06-12T20:46:31.601Z,16.66
2023-06-12T20:48:57.892Z,15.95
2023-06-12T20:51:26.315Z,15.59
2023-06-12T20:53:54.228Z,15.55
2023-06-12T20:56:20.490Z,15.35
2023-06-12T20:58:46.761Z,15.20
2023-06-12T21:01:13.152Z,14.82
2023-06-12T21:03:39.606Z,14.61
2023-06-12T21:06:06.143Z,15.24
2023-06-12T21:08:34.717Z,14.94
2023-06-12T21:11:00.989Z,15.94
2023-06-12T21:13:27.257Z,16.08
2023-06-12T21:15:53.497Z,15.68
2023-06-12T21:18:19.879Z,15.33
2023-06-12T21:20:46.170Z,16.07
2023-06-12T21:23:12.438Z,16.86
2023-06-12T21:25:38.713Z,17.13
2023-06-12T21:28:04.972Z,17.07
2023-06-12T21:30:31.304Z,16.92
2023-06-12T21:32:57.646Z,17.14
2023-06-12T21:35:23.944Z,17.34
2023-06-12T21:37:50.204Z,17.45
2023-06-12T21:40:16.473Z,17.40
2023-06-12T21:42:42.731Z,17.58
2023-06-12T21:45:09.122Z,17.45
2023-06-12T21:47:35.458Z,17.41
2023-06-12T21:50:01.753Z,17.30
2023-06-12T21:52:28.010Z,17.29
2023-06-12T21:54:54.293Z,17.01
2023-06-12T21:57:20.559Z,17.08
2023-06-12T21:59:47.011Z,17.28
2023-06-12T22:02:13.340Z,17.26
2023-06-12T22:04:39.720Z,17.25
2023-06-12T22:07:06.041Z,17.11
2023-06-12T22:09:32.314Z,17.01
2023-06-12T22:11:58.574Z,17.04
2023-06-12T22:14:24.856Z,16.99
2023-06-12T22:16:51.130Z,16.16
2023-06-12T22:19:17.429Z,15.74
2023-06-12T22:21:43.697Z,15.91
2023-06-12T22:24:10.021Z,15.19
2023-06-12T22:26:36.334Z,15.39
2023-06-12T22:29:02.592Z,15.98
2023-06-12T22:31:28.865Z,15.51
2023-06-12T22:33:55.150Z,14.97
2023-06-12T22:36:21.412Z,14.48
2023-06-12T22:38:47.667Z,14.80
2023-06-12T22:41:13.915Z,14.88
2023-06-12T22:43:40.189Z,14.57
2023-06-12T22:46:06.494Z,14.43
2023-06-12T22:48:32.784Z,14.35
2023-06-12T22:50:59.032Z,14.39
2023-06-12T22:53:25.288Z,14.54
2023-06-12T22:55:51.568Z,14.80
2023-06-12T22:58:17.832Z,15.04
2023-06-12T23:00:44.088Z,15.50
2023-06-12T23:03:10.375Z,15.82
2023-06-12T23:05:36.716Z,15.90
2023-06-12T23:08:03.002Z,15.99
2023-06-12T23:10:29.286Z,15.96
2023-06-12T23:12:55.559Z,15.93
2023-06-12T23:15:21.830Z,16.02
2023-06-12T23:17:48.180Z,15.84
2023-06-12T23:20:14.841Z,15.80
2023-06-12T23:22:41.325Z,15.67
2023-06-12T23:25:07.857Z,15.68
2023-06-12T23:27:34.104Z,15.91
2023-06-12T23:30:00.390Z,15.87
2023-06-12T23:32:26.745Z,15.77
2023-06-12T23:34:53.279Z,15.77
2023-06-12T23:37:19.542Z,15.63
2023-06-12T23:39:45.803Z,15.64
2023-06-12T23:42:12.130Z,15.54
2023-06-12T23:44:38.394Z,15.42
2023-06-12T23:47:04.762Z,14.55
2023-06-12T23:49:31.022Z,14.52
2023-06-12T23:51:57.950Z,14.65
2023-06-12T23:54:24.268Z,14.23
2023-06-12T23:56:50.745Z,14.34
2023-06-12T23:59:17.003Z,14.60
